sensor_id;sensor_type;location;lat;lon;timestamp;temperature;humidity
4207;DHT22;2117;47.972;7.830;2023-05-07T00:00:27;13.40;99.90
4207;DHT22;2117;47.972;7.830;2023-05-07T00:02:53;13.40;99.90
4207;DHT22;2117;47.972;7.830;2023-05-07T00:05:19;13.50;99.90
4207;DHT22;2117;47.972;7.830;2023-05-07T00:07:44;13.50;99.90
4207;DHT22;2117;47.972;7.830;2023-05-07T00:10:10;13.40;99.90
4207;DHT22;2117;47.972;7.830;2023-05-07T00:12:37;13.40;99.90
4207;DHT22;2117;47.972;7.830;2023-05-07T00:15:03;13.40;99.90
4207;DHT22;2117;47.972;7.830;2023-05-07T00:17:30;13.40;99.90
4207;DHT22;2117;47.972;7.830;2023-05-07T00:19:56;13.40;99.90
4207;DHT22;2117;47.972;7.830;2023-05-07T00:22:21;13.40;99.90
4207;DHT22;2117;47.972;7.830;2023-05-07T00:24:47;13.40;99.90
4207;DHT22;2117;47.972;7.830;2023-05-07T00:27:12;13.40;99.90
4207;DHT22;2117;47.972;7.830;2023-05-07T00:29:38;13.40;99.90
4207;DHT22;2117;47.972;7.830;2023-05-07T00:32:04;13.40;99.90
4207;DHT22;2117;47.972;7.830;2023-05-07T00:34:29;13.40;99.90
4207;DHT22;2117;47.972;7.830;2023-05-07T00:36:55;13.40;99.90
4207;DHT22;2117;47.972;7.830;2023-05-07T00:39:20;13.40;99.90
4207;DHT22;2117;47.972;7.830;2023-05-07T00:41:46;13.30;99.90
4207;DHT22;2117;47.972;7.830;2023-05-07T00:44:12;13.30;99.90
4207;DHT22;2117;47.972;7.830;2023-05-07T00:46:38;13.30;99.90
4207;DHT22;2117;47.972;7.830;2023-05-07T00:49:04;13.30;99.90
4207;DHT22;2117;47.972;7.830;2023-05-07T00:51:30;13.20;99.90
4207;DHT22;2117;47.972;7.830;2023-05-07T00:53:56;13.20;99.90
4207;DHT22;2117;47.972;7.830;2023-05-07T00:56:22;13.20;99.90
4207;DHT22;2117;47.972;7.830;2023-05-07T00:58:49;13.30;99.90
4207;DHT22;2117;47.972;7.830;2023-05-07T01:01:16;13.20;99.90
4207;DHT22;2117;47.972;7.830;2023-05-07T01:03:42;13.20;99.90
4207;DHT22;2117;47.972;7.830;2023-05-07T01:06:08;13.30;99.90
4207;DHT22;2117;47.972;7.830;2023-05-07T01:08:35;13.30;99.90
4207;DHT22;2117;47.972;7.830;2023-05-07T01:11:02;13.30;99.90
4207;DHT22;2117;47.972;7.830;2023-05-07T01:13:29;13.30;99.90
4207;DHT22;2117;47.972;7.830;2023-05-07T01:15:55;13.30;99.90
4207;DHT22;2117;47.972;7.830;2023-05-07T01:18:20;13.30;99.90
4207;DHT22;2117;47.972;7.830;2023-05-07T01:20:47;13.30;99.90
4207;DHT22;2117;47.972;7.830;2023-05-07T01:23:13;13.30;99.90
4207;DHT22;2117;47.972;7.830;2023-05-07T01:25:38;13.20;99.90
4207;DHT22;2117;47.972;7.830;2023-05-07T01:28:04;13.10;99.90
4207;DHT22;2117;47.972;7.830;2023-05-07T01:30:31;13.20;99.90
4207;DHT22;2117;47.972;7.830;2023-05-07T01:33:09;13.10;99.90
4207;DHT22;2117;47.972;7.830;2023-05-07T01:35:39;13.20;99.90
4207;DHT22;2117;47.972;7.830;2023-05-07T01:38:07;13.20;99.90
4207;DHT22;2117;47.972;7.830;2023-05-07T01:40:33;13.10;99.90
4207;DHT22;2117;47.972;7.830;2023-05-07T01:43:03;13.00;99.90
4207;DHT22;2117;47.972;7.830;2023-05-07T01:45:30;13.10;99.90
4207;DHT22;2117;47.972;7.830;2023-05-07T01:47:56;13.10;99.90
4207;DHT22;2117;47.972;7.830;2023-05-07T01:50:23;13.00;99.90
4207;DHT22;2117;47.972;7.830;2023-05-07T01:52:50;13.10;99.90
4207;DHT22;2117;47.972;7.830;2023-05-07T01:55:16;13.00;99.90
4207;DHT22;2117;47.972;7.830;2023-05-07T01:57:41;13.00;99.90
4207;DHT22;2117;47.972;7.830;2023-05-07T02:00:07;13.00;99.90
4207;DHT22;2117;47.972;7.830;2023-05-07T02:05:00;12.90;99.90
4207;DHT22;2117;47.972;7.830;2023-05-07T02:07:27;12.90;99.90
4207;DHT22;2117;47.972;7.830;2023-05-07T02:09:52;12.90;99.90
4207;DHT22;2117;47.972;7.830;2023-05-07T02:12:19;12.90;99.90
4207;DHT22;2117;47.972;7.830;2023-05-07T02:14:44;12.80;99.90
4207;DHT22;2117;47.972;7.830;2023-05-07T02:17:10;12.70;99.90
4207;DHT22;2117;47.972;7.830;2023-05-07T02:19:35;12.80;99.90
4207;DHT22;2117;47.972;7.830;2023-05-07T02:22:01;12.80;99.90
4207;DHT22;2117;47.972;7.830;2023-05-07T02:24:26;12.60;99.90
4207;DHT22;2117;47.972;7.830;2023-05-07T02:26:52;12.70;99.90
4207;DHT22;2117;47.972;7.830;2023-05-07T02:29:17;12.70;99.90
4207;DHT22;2117;47.972;7.830;2023-05-07T02:31:43;12.70;99.90
4207;DHT22;2117;47.972;7.830;2023-05-07T02:34:08;12.60;99.90
4207;DHT22;2117;47.972;7.830;2023-05-07T02:36:34;12.60;99.90
4207;DHT22;2117;47.972;7.830;2023-05-07T02:39:00;12.50;99.90
4207;DHT22;2117;47.972;7.830;2023-05-07T02:41:26;12.60;99.90
4207;DHT22;2117;47.972;7.830;2023-05-07T02:43:53;12.50;99.90
4207;DHT22;2117;47.972;7.830;2023-05-07T02:46:19;12.50;99.90
4207;DHT22;2117;47.972;7.830;2023-05-07T02:48:44;12.50;99.90
4207;DHT22;2117;47.972;7.830;2023-05-07T02:51:10;12.50;99.90
4207;DHT22;2117;47.972;7.830;2023-05-07T02:53:35;12.40;99.90
4207;DHT22;2117;47.972;7.830;2023-05-07T02:56:01;12.40;99.90
4207;DHT22;2117;47.972;7.830;2023-05-07T02:58:27;12.40;99.90
4207;DHT22;2117;47.972;7.830;2023-05-07T03:00:53;12.30;99.90
4207;DHT22;2117;47.972;7.830;2023-05-07T03:03:20;12.40;99.90
4207;DHT22;2117;47.972;7.830;2023-05-07T03:05:46;12.30;99.90
4207;DHT22;2117;47.972;7.830;2023-05-07T03:08:12;12.30;99.90
4207;DHT22;2117;47.972;7.830;2023-05-07T03:10:38;12.20;99.90
4207;DHT22;2117;47.972;7.830;2023-05-07T03:13:04;12.20;99.90
4207;DHT22;2117;47.972;7.830;2023-05-07T03:15:30;12.20;99.90
4207;DHT22;2117;47.972;7.830;2023-05-07T03:17:55;12.20;99.90
4207;DHT22;2117;47.972;7.830;2023-05-07T03:20:21;12.20;99.90
4207;DHT22;2117;47.972;7.830;2023-05-07T03:22:47;12.10;99.90
4207;DHT22;2117;47.972;7.830;2023-05-07T03:25:12;12.30;99.90
4207;DHT22;2117;47.972;7.830;2023-05-07T03:27:39;12.30;99.90
4207;DHT22;2117;47.972;7.830;2023-05-07T03:30:05;12.20;99.90
4207;DHT22;2117;47.972;7.830;2023-05-07T03:32:32;12.30;99.90
4207;DHT22;2117;47.972;7.830;2023-05-07T03:34:57;12.40;99.90
4207;DHT22;2117;47.972;7.830;2023-05-07T03:37:23;12.30;99.90
4207;DHT22;2117;47.972;7.830;2023-05-07T03:39:48;12.30;99.90
4207;DHT22;2117;47.972;7.830;2023-05-07T03:42:15;12.30;99.90
4207;DHT22;2117;47.972;7.830;2023-05-07T03:44:40;12.30;99.90
4207;DHT22;2117;47.972;7.830;2023-05-07T03:47:06;12.20;99.90
4207;DHT22;2117;47.972;7.830;2023-05-07T03:49:31;12.20;99.90
4207;DHT22;2117;47.972;7.830;2023-05-07T03:51:57;12.20;99.90
4207;DHT22;2117;47.972;7.830;2023-05-07T03:54:22;12.20;99.90
4207;DHT22;2117;47.972;7.830;2023-05-07T03:56:48;12.20;99.90
4207;DHT22;2117;47.972;7.830;2023-05-07T03:59:14;12.40;99.90
4207;DHT22;2117;47.972;7.830;2023-05-07T04:01:39;12.20;99.90
4207;DHT22;2117;47.972;7.830;2023-05-07T04:04:05;12.30;99.90
4207;DHT22;2117;47.972;7.830;2023-05-07T04:06:31;11.90;99.90
4207;DHT22;2117;47.972;7.830;2023-05-07T04:08:57;12.10;99.90
4207;DHT22;2117;47.972;7.830;2023-05-07T04:11:22;12.30;99.90
4207;DHT22;2117;47.972;7.830;2023-05-07T04:13:48;12.10;99.90
4207;DHT22;2117;47.972;7.830;2023-05-07T04:16:13;12.00;99.90
4207;DHT22;2117;47.972;7.830;2023-05-07T04:18:39;12.10;99.90
4207;DHT22;2117;47.972;7.830;2023-05-07T04:21:05;12.10;99.90
4207;DHT22;2117;47.972;7.830;2023-05-07T04:23:31;12.10;99.90
4207;DHT22;2117;47.972;7.830;2023-05-07T04:25:56;12.10;99.90
4207;DHT22;2117;47.972;7.830;2023-05-07T04:28:23;12.10;99.90
4207;DHT22;2117;47.972;7.830;2023-05-07T04:30:48;12.20;99.90
4207;DHT22;2117;47.972;7.830;2023-05-07T04:33:14;12.20;99.90
4207;DHT22;2117;47.972;7.830;2023-05-07T04:35:42;12.30;99.90
4207;DHT22;2117;47.972;7.830;2023-05-07T04:38:07;12.30;99.90
4207;DHT22;2117;47.972;7.830;2023-05-07T04:40:35;12.30;99.90
4207;DHT22;2117;47.972;7.830;2023-05-07T04:43:00;12.30;99.90
4207;DHT22;2117;47.972;7.830;2023-05-07T04:45:26;12.30;99.90
4207;DHT22;2117;47.972;7.830;2023-05-07T04:47:52;12.30;99.90
4207;DHT22;2117;47.972;7.830;2023-05-07T04:50:18;12.40;99.90
4207;DHT22;2117;47.972;7.830;2023-05-07T04:52:44;12.40;99.90
4207;DHT22;2117;47.972;7.830;2023-05-07T04:55:10;12.50;99.90
4207;DHT22;2117;47.972;7.830;2023-05-07T04:57:36;12.50;99.90
4207;DHT22;2117;47.972;7.830;2023-05-07T05:00:04;12.50;99.90
4207;DHT22;2117;47.972;7.830;2023-05-07T05:02:29;12.50;99.90
4207;DHT22;2117;47.972;7.830;2023-05-07T05:04:55;12.60;99.90
4207;DHT22;2117;47.972;7.830;2023-05-07T05:07:20;12.70;99.90
4207;DHT22;2117;47.972;7.830;2023-05-07T05:12:12;12.70;99.90
4207;DHT22;2117;47.972;7.830;2023-05-07T05:14:37;12.60;99.90
4207;DHT22;2117;47.972;7.830;2023-05-07T05:17:03;12.80;99.90
4207;DHT22;2117;47.972;7.830;2023-05-07T05:19:28;12.90;99.90
4207;DHT22;2117;47.972;7.830;2023-05-07T05:21:54;12.90;99.90
4207;DHT22;2117;47.972;7.830;2023-05-07T05:24:20;13.00;99.90
4207;DHT22;2117;47.972;7.830;2023-05-07T05:26:45;13.00;99.90
4207;DHT22;2117;47.972;7.830;2023-05-07T05:29:11;13.10;99.90
4207;DHT22;2117;47.972;7.830;2023-05-07T05:31:36;13.10;99.90
4207;DHT22;2117;47.972;7.830;2023-05-07T05:34:02;13.20;99.90
4207;DHT22;2117;47.972;7.830;2023-05-07T05:36:28;13.30;99.90
4207;DHT22;2117;47.972;7.830;2023-05-07T05:38:55;13.40;99.90
4207;DHT22;2117;47.972;7.830;2023-05-07T05:41:21;13.40;99.90
4207;DHT22;2117;47.972;7.830;2023-05-07T05:43:46;13.50;99.90
4207;DHT22;2117;47.972;7.830;2023-05-07T05:46:12;13.60;99.90
4207;DHT22;2117;47.972;7.830;2023-05-07T05:48:38;13.80;99.90
4207;DHT22;2117;47.972;7.830;2023-05-07T05:51:03;13.90;99.90
4207;DHT22;2117;47.972;7.830;2023-05-07T05:53:29;14.00;99.90
4207;DHT22;2117;47.972;7.830;2023-05-07T05:55:54;14.10;99.90
4207;DHT22;2117;47.972;7.830;2023-05-07T06:00:46;14.30;99.90
4207;DHT22;2117;47.972;7.830;2023-05-07T06:03:13;14.40;99.90
4207;DHT22;2117;47.972;7.830;2023-05-07T06:05:39;14.50;99.90
4207;DHT22;2117;47.972;7.830;2023-05-07T06:08:04;14.60;99.90
4207;DHT22;2117;47.972;7.830;2023-05-07T06:10:30;14.70;99.90
4207;DHT22;2117;47.972;7.830;2023-05-07T06:12:56;14.70;99.90
4207;DHT22;2117;47.972;7.830;2023-05-07T06:15:21;14.80;99.90
4207;DHT22;2117;47.972;7.830;2023-05-07T06:17:47;14.90;99.90
4207;DHT22;2117;47.972;7.830;2023-05-07T06:20:14;15.10;99.90
4207;DHT22;2117;47.972;7.830;2023-05-07T06:22:39;15.10;99.90
4207;DHT22;2117;47.972;7.830;2023-05-07T06:25:05;15.20;99.90
4207;DHT22;2117;47.972;7.830;2023-05-07T06:27:31;15.40;99.90
4207;DHT22;2117;47.972;7.830;2023-05-07T06:29:56;15.50;99.90
4207;DHT22;2117;47.972;7.830;2023-05-07T06:32:22;15.50;99.90
4207;DHT22;2117;47.972;7.830;2023-05-07T06:34:48;15.60;99.90
4207;DHT22;2117;47.972;7.830;2023-05-07T06:37:13;15.60;99.90
4207;DHT22;2117;47.972;7.830;2023-05-07T06:39:39;15.60;99.90
4207;DHT22;2117;47.972;7.830;2023-05-07T06:42:04;15.60;99.90
4207;DHT22;2117;47.972;7.830;2023-05-07T06:44:30;15.70;99.90
4207;DHT22;2117;47.972;7.830;2023-05-07T06:46:57;15.80;99.90
4207;DHT22;2117;47.972;7.830;2023-05-07T06:49:22;15.90;99.90
4207;DHT22;2117;47.972;7.830;2023-05-07T06:51:48;15.90;99.90
4207;DHT22;2117;47.972;7.830;2023-05-07T06:54:13;15.90;99.90
4207;DHT22;2117;47.972;7.830;2023-05-07T06:56:39;16.00;99.90
4207;DHT22;2117;47.972;7.830;2023-05-07T06:59:05;16.00;99.90
4207;DHT22;2117;47.972;7.830;2023-05-07T07:01:31;16.10;99.90
4207;DHT22;2117;47.972;7.830;2023-05-07T07:03:57;16.10;99.90
4207;DHT22;2117;47.972;7.830;2023-05-07T07:06:22;16.20;99.90
4207;DHT22;2117;47.972;7.830;2023-05-07T07:08:48;16.20;99.90
4207;DHT22;2117;47.972;7.830;2023-05-07T07:11:13;16.30;99.90
4207;DHT22;2117;47.972;7.830;2023-05-07T07:13:39;16.30;99.90
4207;DHT22;2117;47.972;7.830;2023-05-07T07:16:05;16.40;99.90
4207;DHT22;2117;47.972;7.830;2023-05-07T07:18:31;17.00;99.90
4207;DHT22;2117;47.972;7.830;2023-05-07T07:20:56;16.60;99.90
4207;DHT22;2117;47.972;7.830;2023-05-07T07:23:22;16.70;99.90
4207;DHT22;2117;47.972;7.830;2023-05-07T07:25:48;16.80;99.90
4207;DHT22;2117;47.972;7.830;2023-05-07T07:28:13;16.80;99.90
4207;DHT22;2117;47.972;7.830;2023-05-07T07:30:39;16.90;99.90
4207;DHT22;2117;47.972;7.830;2023-05-07T07:33:05;17.00;99.90
4207;DHT22;2117;47.972;7.830;2023-05-07T07:35:34;17.00;99.90
4207;DHT22;2117;47.972;7.830;2023-05-07T07:37:59;17.10;99.90
4207;DHT22;2117;47.972;7.830;2023-05-07T07:40:25;17.20;99.90
4207;DHT22;2117;47.972;7.830;2023-05-07T07:42:51;17.20;99.90
4207;DHT22;2117;47.972;7.830;2023-05-07T07:45:17;17.20;99.90
4207;DHT22;2117;47.972;7.830;2023-05-07T07:47:42;17.30;99.90
4207;DHT22;2117;47.972;7.830;2023-05-07T07:50:08;17.30;99.90
4207;DHT22;2117;47.972;7.830;2023-05-07T07:52:34;17.40;99.90
4207;DHT22;2117;47.972;7.830;2023-05-07T07:55:00;17.40;99.90
4207;DHT22;2117;47.972;7.830;2023-05-07T07:57:26;17.40;99.90
4207;DHT22;2117;47.972;7.830;2023-05-07T07:59:51;17.60;99.90
4207;DHT22;2117;47.972;7.830;2023-05-07T08:02:17;17.60;99.90
4207;DHT22;2117;47.972;7.830;2023-05-07T08:04:43;17.80;99.90
4207;DHT22;2117;47.972;7.830;2023-05-07T08:07:09;17.80;99.90
4207;DHT22;2117;47.972;7.830;2023-05-07T08:09:36;18.00;99.90
4207;DHT22;2117;47.972;7.830;2023-05-07T08:12:02;18.00;99.90
4207;DHT22;2117;47.972;7.830;2023-05-07T08:14:28;18.10;99.90
4207;DHT22;2117;47.972;7.830;2023-05-07T08:16:54;18.20;99.90
4207;DHT22;2117;47.972;7.830;2023-05-07T08:19:20;18.40;99.90
4207;DHT22;2117;47.972;7.830;2023-05-07T08:21:45;18.50;99.90
4207;DHT22;2117;47.972;7.830;2023-05-07T08:24:13;18.70;99.90
4207;DHT22;2117;47.972;7.830;2023-05-07T08:26:39;18.80;99.90
4207;DHT22;2117;47.972;7.830;2023-05-07T08:29:05;19.10;99.90
4207;DHT22;2117;47.972;7.830;2023-05-07T08:31:31;19.10;99.90
4207;DHT22;2117;47.972;7.830;2023-05-07T08:33:57;19.20;99.90
4207;DHT22;2117;47.972;7.830;2023-05-07T08:36:23;19.30;99.90
4207;DHT22;2117;47.972;7.830;2023-05-07T08:38:49;19.50;99.90
4207;DHT22;2117;47.972;7.830;2023-05-07T08:41:15;19.50;99.90
4207;DHT22;2117;47.972;7.830;2023-05-07T08:43:41;19.60;99.90
4207;DHT22;2117;47.972;7.830;2023-05-07T08:46:09;19.50;99.90
4207;DHT22;2117;47.972;7.830;2023-05-07T08:48:35;19.30;99.90
4207;DHT22;2117;47.972;7.830;2023-05-07T08:51:01;19.40;99.90
4207;DHT22;2117;47.972;7.830;2023-05-07T08:53:26;19.40;99.90
4207;DHT22;2117;47.972;7.830;2023-05-07T08:55:53;19.50;99.90
4207;DHT22;2117;47.972;7.830;2023-05-07T08:58:19;19.50;99.90
4207;DHT22;2117;47.972;7.830;2023-05-07T09:00:44;19.70;99.90
4207;DHT22;2117;47.972;7.830;2023-05-07T09:03:10;19.80;99.90
4207;DHT22;2117;47.972;7.830;2023-05-07T09:05:39;19.80;99.90
4207;DHT22;2117;47.972;7.830;2023-05-07T09:08:06;19.80;99.90
4207;DHT22;2117;47.972;7.830;2023-05-07T09:10:33;19.80;99.90
4207;DHT22;2117;47.972;7.830;2023-05-07T09:12:59;19.90;99.90
4207;DHT22;2117;47.972;7.830;2023-05-07T09:15:27;19.90;99.90
4207;DHT22;2117;47.972;7.830;2023-05-07T09:17:53;20.00;99.90
4207;DHT22;2117;47.972;7.830;2023-05-07T09:20:19;20.10;99.90
4207;DHT22;2117;47.972;7.830;2023-05-07T09:22:44;20.10;99.90
4207;DHT22;2117;47.972;7.830;2023-05-07T09:25:10;20.20;99.90
4207;DHT22;2117;47.972;7.830;2023-05-07T09:27:37;20.40;99.90
4207;DHT22;2117;47.972;7.830;2023-05-07T09:30:06;20.30;99.90
4207;DHT22;2117;47.972;7.830;2023-05-07T09:32:35;20.10;99.90
4207;DHT22;2117;47.972;7.830;2023-05-07T09:35:01;20.20;99.90
4207;DHT22;2117;47.972;7.830;2023-05-07T09:37:30;20.30;99.90
4207;DHT22;2117;47.972;7.830;2023-05-07T09:39:56;20.60;99.90
4207;DHT22;2117;47.972;7.830;2023-05-07T09:42:25;20.70;99.90
4207;DHT22;2117;47.972;7.830;2023-05-07T09:44:52;20.80;99.90
4207;DHT22;2117;47.972;7.830;2023-05-07T09:47:23;20.90;99.90
4207;DHT22;2117;47.972;7.830;2023-05-07T09:49:50;21.00;99.90
4207;DHT22;2117;47.972;7.830;2023-05-07T09:52:18;21.00;99.90
4207;DHT22;2117;47.972;7.830;2023-05-07T09:54:45;21.10;99.90
4207;DHT22;2117;47.972;7.830;2023-05-07T09:57:12;20.90;99.90
4207;DHT22;2117;47.972;7.830;2023-05-07T09:59:39;20.70;99.90
4207;DHT22;2117;47.972;7.830;2023-05-07T10:02:09;20.40;99.90
4207;DHT22;2117;47.972;7.830;2023-05-07T10:04:35;20.10;99.90
4207;DHT22;2117;47.972;7.830;2023-05-07T10:07:02;19.70;99.90
4207;DHT22;2117;47.972;7.830;2023-05-07T10:09:29;19.70;99.90
4207;DHT22;2117;47.972;7.830;2023-05-07T10:11:56;19.70;99.90
4207;DHT22;2117;47.972;7.830;2023-05-07T10:14:22;19.60;99.90
4207;DHT22;2117;47.972;7.830;2023-05-07T10:16:49;19.10;99.90
4207;DHT22;2117;47.972;7.830;2023-05-07T10:19:15;18.80;99.90
4207;DHT22;2117;47.972;7.830;2023-05-07T10:21:54;18.60;99.90
4207;DHT22;2117;47.972;7.830;2023-05-07T10:24:26;18.50;99.90
4207;DHT22;2117;47.972;7.830;2023-05-07T10:26:53;18.30;99.90
4207;DHT22;2117;47.972;7.830;2023-05-07T10:29:39;18.00;99.90
4207;DHT22;2117;47.972;7.830;2023-05-07T10:32:14;17.90;99.90
4207;DHT22;2117;47.972;7.830;2023-05-07T10:34:47;17.70;99.90
4207;DHT22;2117;47.972;7.830;2023-05-07T10:37:14;17.50;99.90
4207;DHT22;2117;47.972;7.830;2023-05-07T10:39:40;17.30;99.90
4207;DHT22;2117;47.972;7.830;2023-05-07T10:42:11;17.30;99.90
4207;DHT22;2117;47.972;7.830;2023-05-07T10:44:36;17.30;99.90
4207;DHT22;2117;47.972;7.830;2023-05-07T10:47:09;17.20;99.90
4207;DHT22;2117;47.972;7.830;2023-05-07T10:52:24;17.30;99.90
4207;DHT22;2117;47.972;7.830;2023-05-07T10:57:46;17.50;99.90
4207;DHT22;2117;47.972;7.830;2023-05-07T11:05:26;18.30;99.90
4207;DHT22;2117;47.972;7.830;2023-05-07T11:07:56;18.70;99.90
4207;DHT22;2117;47.972;7.830;2023-05-07T11:10:22;19.30;99.90
4207;DHT22;2117;47.972;7.830;2023-05-07T11:12:49;19.70;99.90
4207;DHT22;2117;47.972;7.830;2023-05-07T11:15:33;20.20;99.90
4207;DHT22;2117;47.972;7.830;2023-05-07T11:17:59;20.50;99.90
4207;DHT22;2117;47.972;7.830;2023-05-07T11:20:48;21.00;99.90
4207;DHT22;2117;47.972;7.830;2023-05-07T11:26:04;21.70;99.90
4207;DHT22;2117;47.972;7.830;2023-05-07T11:28:30;22.30;99.90
4207;DHT22;2117;47.972;7.830;2023-05-07T11:30:56;22.30;99.90
4207;DHT22;2117;47.972;7.830;2023-05-07T11:33:23;22.60;99.90
4207;DHT22;2117;47.972;7.830;2023-05-07T11:35:52;23.00;99.90
4207;DHT22;2117;47.972;7.830;2023-05-07T11:38:18;23.30;99.90
4207;DHT22;2117;47.972;7.830;2023-05-07T11:40:57;23.40;99.90
4207;DHT22;2117;47.972;7.830;2023-05-07T11:43:26;23.40;99.90
4207;DHT22;2117;47.972;7.830;2023-05-07T11:45:52;23.40;99.90
4207;DHT22;2117;47.972;7.830;2023-05-07T11:48:17;23.10;99.90
4207;DHT22;2117;47.972;7.830;2023-05-07T11:50:54;23.00;99.90
4207;DHT22;2117;47.972;7.830;2023-05-07T11:53:22;22.90;99.90
4207;DHT22;2117;47.972;7.830;2023-05-07T11:55:52;22.60;99.90
4207;DHT22;2117;47.972;7.830;2023-05-07T11:58:22;22.40;99.90
4207;DHT22;2117;47.972;7.830;2023-05-07T12:00:49;22.40;99.90
4207;DHT22;2117;47.972;7.830;2023-05-07T12:03:14;22.30;99.90
4207;DHT22;2117;47.972;7.830;2023-05-07T12:05:40;22.30;99.90
4207;DHT22;2117;47.972;7.830;2023-05-07T12:08:07;22.20;99.90
4207;DHT22;2117;47.972;7.830;2023-05-07T12:10:33;22.30;99.90
4207;DHT22;2117;47.972;7.830;2023-05-07T12:12:58;22.20;99.90
4207;DHT22;2117;47.972;7.830;2023-05-07T12:15:24;22.20;99.90
4207;DHT22;2117;47.972;7.830;2023-05-07T12:17:50;22.00;99.90
4207;DHT22;2117;47.972;7.830;2023-05-07T12:20:16;21.90;99.90
4207;DHT22;2117;47.972;7.830;2023-05-07T12:22:42;21.70;99.90
4207;DHT22;2117;47.972;7.830;2023-05-07T12:25:08;22.00;99.90
4207;DHT22;2117;47.972;7.830;2023-05-07T12:27:37;23.60;99.90
4207;DHT22;2117;47.972;7.830;2023-05-07T12:30:03;23.60;99.90
4207;DHT22;2117;47.972;7.830;2023-05-07T12:32:29;24.00;99.90
4207;DHT22;2117;47.972;7.830;2023-05-07T12:34:55;23.60;99.90
4207;DHT22;2117;47.972;7.830;2023-05-07T12:37:24;23.30;99.90
4207;DHT22;2117;47.972;7.830;2023-05-07T12:40:04;23.10;99.90
4207;DHT22;2117;47.972;7.830;2023-05-07T12:42:35;22.70;99.90
4207;DHT22;2117;47.972;7.830;2023-05-07T12:45:08;22.60;99.90
4207;DHT22;2117;47.972;7.830;2023-05-07T12:47:33;22.60;99.90
4207;DHT22;2117;47.972;7.830;2023-05-07T12:49:59;22.30;99.90
4207;DHT22;2117;47.972;7.830;2023-05-07T12:52:25;22.30;99.90
4207;DHT22;2117;47.972;7.830;2023-05-07T12:54:51;22.00;99.90
4207;DHT22;2117;47.972;7.830;2023-05-07T12:57:19;21.70;99.90
4207;DHT22;2117;47.972;7.830;2023-05-07T12:59:45;21.10;99.90
4207;DHT22;2117;47.972;7.830;2023-05-07T13:02:11;21.00;99.90
4207;DHT22;2117;47.972;7.830;2023-05-07T13:04:37;21.30;99.90
4207;DHT22;2117;47.972;7.830;2023-05-07T13:07:02;21.60;99.90
4207;DHT22;2117;47.972;7.830;2023-05-07T13:09:28;21.60;99.90
4207;DHT22;2117;47.972;7.830;2023-05-07T13:11:54;21.70;99.90
4207;DHT22;2117;47.972;7.830;2023-05-07T13:14:20;21.70;99.90
4207;DHT22;2117;47.972;7.830;2023-05-07T13:16:49;21.50;99.90
4207;DHT22;2117;47.972;7.830;2023-05-07T13:19:15;21.70;99.90
4207;DHT22;2117;47.972;7.830;2023-05-07T13:21:40;21.70;99.90
4207;DHT22;2117;47.972;7.830;2023-05-07T13:24:06;21.80;99.90
4207;DHT22;2117;47.972;7.830;2023-05-07T13:26:32;21.90;99.90
4207;DHT22;2117;47.972;7.830;2023-05-07T13:28:57;21.70;99.90
4207;DHT22;2117;47.972;7.830;2023-05-07T13:31:24;21.80;99.90
4207;DHT22;2117;47.972;7.830;2023-05-07T13:33:49;21.90;99.90
4207;DHT22;2117;47.972;7.830;2023-05-07T13:36:15;21.70;99.90
4207;DHT22;2117;47.972;7.830;2023-05-07T13:38:41;21.20;99.90
4207;DHT22;2117;47.972;7.830;2023-05-07T13:41:06;21.40;99.90
4207;DHT22;2117;47.972;7.830;2023-05-07T13:43:32;21.40;99.90
4207;DHT22;2117;47.972;7.830;2023-05-07T13:45:59;21.90;99.90
4207;DHT22;2117;47.972;7.830;2023-05-07T13:48:25;22.80;99.90
4207;DHT22;2117;47.972;7.830;2023-05-07T13:50:50;23.00;99.90
4207;DHT22;2117;47.972;7.830;2023-05-07T13:53:17;23.30;99.90
4207;DHT22;2117;47.972;7.830;2023-05-07T13:55:44;23.50;99.90
4207;DHT22;2117;47.972;7.830;2023-05-07T13:58:09;23.10;99.90
4207;DHT22;2117;47.972;7.830;2023-05-07T14:00:35;23.10;99.90
4207;DHT22;2117;47.972;7.830;2023-05-07T14:03:01;22.90;99.90
4207;DHT22;2117;47.972;7.830;2023-05-07T14:05:26;22.90;99.90
4207;DHT22;2117;47.972;7.830;2023-05-07T14:08:02;22.70;99.90
4207;DHT22;2117;47.972;7.830;2023-05-07T14:10:29;22.70;99.90
4207;DHT22;2117;47.972;7.830;2023-05-07T14:12:55;22.80;99.90
4207;DHT22;2117;47.972;7.830;2023-05-07T14:15:21;22.90;99.90
4207;DHT22;2117;47.972;7.830;2023-05-07T14:17:46;23.00;99.90
4207;DHT22;2117;47.972;7.830;2023-05-07T14:20:12;23.00;99.90
4207;DHT22;2117;47.972;7.830;2023-05-07T14:22:38;23.00;99.90
4207;DHT22;2117;47.972;7.830;2023-05-07T14:25:04;22.80;99.90
4207;DHT22;2117;47.972;7.830;2023-05-07T14:27:30;23.00;99.90
4207;DHT22;2117;47.972;7.830;2023-05-07T14:29:55;23.50;99.90
4207;DHT22;2117;47.972;7.830;2023-05-07T14:32:21;24.00;99.90
4207;DHT22;2117;47.972;7.830;2023-05-07T14:34:47;24.30;99.90
4207;DHT22;2117;47.972;7.830;2023-05-07T14:37:12;24.60;99.90
4207;DHT22;2117;47.972;7.830;2023-05-07T14:39:39;24.60;99.90
4207;DHT22;2117;47.972;7.830;2023-05-07T14:42:05;24.70;99.90
4207;DHT22;2117;47.972;7.830;2023-05-07T14:44:30;24.80;99.90
4207;DHT22;2117;47.972;7.830;2023-05-07T14:46:56;25.50;99.90
4207;DHT22;2117;47.972;7.830;2023-05-07T14:49:22;25.20;99.90
4207;DHT22;2117;47.972;7.830;2023-05-07T14:51:47;25.00;99.90
4207;DHT22;2117;47.972;7.830;2023-05-07T14:54:14;24.60;99.90
4207;DHT22;2117;47.972;7.830;2023-05-07T14:56:40;24.20;99.90
4207;DHT22;2117;47.972;7.830;2023-05-07T14:59:06;24.40;99.90
4207;DHT22;2117;47.972;7.830;2023-05-07T15:01:32;24.50;99.90
4207;DHT22;2117;47.972;7.830;2023-05-07T15:03:57;24.80;99.90
4207;DHT22;2117;47.972;7.830;2023-05-07T15:06:23;25.10;99.90
4207;DHT22;2117;47.972;7.830;2023-05-07T15:08:49;25.70;99.90
4207;DHT22;2117;47.972;7.830;2023-05-07T15:11:14;25.80;99.90
4207;DHT22;2117;47.972;7.830;2023-05-07T15:13:42;25.80;99.90
4207;DHT22;2117;47.972;7.830;2023-05-07T15:16:07;26.00;99.90
4207;DHT22;2117;47.972;7.830;2023-05-07T15:18:33;26.00;99.90
4207;DHT22;2117;47.972;7.830;2023-05-07T15:20:58;25.90;99.90
4207;DHT22;2117;47.972;7.830;2023-05-07T15:23:24;25.70;99.90
4207;DHT22;2117;47.972;7.830;2023-05-07T15:25:50;25.30;99.90
4207;DHT22;2117;47.972;7.830;2023-05-07T15:28:15;24.70;99.90
4207;DHT22;2117;47.972;7.830;2023-05-07T15:30:41;24.70;99.90
4207;DHT22;2117;47.972;7.830;2023-05-07T15:33:07;24.40;99.90
4207;DHT22;2117;47.972;7.830;2023-05-07T15:35:32;24.40;99.90
4207;DHT22;2117;47.972;7.830;2023-05-07T15:37:58;24.40;99.90
4207;DHT22;2117;47.972;7.830;2023-05-07T15:40:24;24.40;99.90
4207;DHT22;2117;47.972;7.830;2023-05-07T15:42:50;24.40;99.90
4207;DHT22;2117;47.972;7.830;2023-05-07T15:45:19;24.20;99.90
4207;DHT22;2117;47.972;7.830;2023-05-07T15:47:44;24.10;99.90
4207;DHT22;2117;47.972;7.830;2023-05-07T15:50:10;24.10;99.90
4207;DHT22;2117;47.972;7.830;2023-05-07T15:52:36;23.80;99.90
4207;DHT22;2117;47.972;7.830;2023-05-07T15:55:02;23.60;99.90
4207;DHT22;2117;47.972;7.830;2023-05-07T15:57:27;23.30;99.90
4207;DHT22;2117;47.972;7.830;2023-05-07T15:59:53;23.00;99.90
4207;DHT22;2117;47.972;7.830;2023-05-07T16:04:45;22.80;99.90
4207;DHT22;2117;47.972;7.830;2023-05-07T16:07:11;22.50;99.90
4207;DHT22;2117;47.972;7.830;2023-05-07T16:09:37;22.40;99.90
4207;DHT22;2117;47.972;7.830;2023-05-07T16:12:03;22.40;99.90
4207;DHT22;2117;47.972;7.830;2023-05-07T16:14:28;22.40;99.90
4207;DHT22;2117;47.972;7.830;2023-05-07T16:16:54;22.50;99.90
4207;DHT22;2117;47.972;7.830;2023-05-07T16:19:19;22.40;99.90